sensor_id;sensor_type;location;lat;lon;timestamp;pressure;altitude;pressure_sealevel;temperature;humidity
38630;BME280;24384;51.988;4.644;2023-05-10T00:00:34;100910.34;;;11.94;100.00
38630;BME280;24384;51.988;4.644;2023-05-10T00:02:59;100896.75;;;11.79;100.00
38630;BME280;24384;51.988;4.644;2023-05-10T00:05:24;100898.81;;;11.71;100.00
38630;BME280;24384;51.988;4.644;2023-05-10T00:07:49;100901.91;;;11.82;100.00
38630;BME280;24384;51.988;4.644;2023-05-10T00:10:15;100891.91;;;11.92;100.00
38630;BME280;24384;51.988;4.644;2023-05-10T00:12:42;100901.00;;;11.83;100.00
38630;BME280;24384;51.988;4.644;2023-05-10T00:15:08;100889.00;;;11.75;100.00
38630;BME280;24384;51.988;4.644;2023-05-10T00:17:33;100892.25;;;11.81;100.00
38630;BME280;24384;51.988;4.644;2023-05-10T00:19:58;100902.03;;;11.79;100.00
38630;BME280;24384;51.988;4.644;2023-05-10T00:22:24;100893.19;;;11.80;100.00
38630;BME280;24384;51.988;4.644;2023-05-10T00:24:49;100894.22;;;11.76;100.00
38630;BME280;24384;51.988;4.644;2023-05-10T00:27:14;100901.25;;;11.77;100.00
38630;BME280;24384;51.988;4.644;2023-05-10T00:29:39;100903.84;;;11.79;100.00
38630;BME280;24384;51.988;4.644;2023-05-10T00:32:05;100905.03;;;11.70;100.00
38630;BME280;24384;51.988;4.644;2023-05-10T00:34:31;100899.78;;;11.69;100.00
38630;BME280;24384;51.988;4.644;2023-05-10T00:36:56;100905.34;;;11.61;100.00
38630;BME280;24384;51.988;4.644;2023-05-10T00:39:21;100906.97;;;11.65;100.00
38630;BME280;24384;51.988;4.644;2023-05-10T00:41:47;100906.75;;;11.71;100.00
38630;BME280;24384;51.988;4.644;2023-05-10T00:44:12;100901.41;;;11.73;100.00
38630;BME280;24384;51.988;4.644;2023-05-10T00:46:37;100903.72;;;11.57;100.00
38630;BME280;24384;51.988;4.644;2023-05-10T00:49:03;100898.44;;;11.57;100.00
38630;BME280;24384;51.988;4.644;2023-05-10T00:51:29;100893.16;;;11.57;100.00
38630;BME280;24384;51.988;4.644;2023-05-10T00:53:54;100897.50;;;11.59;100.00
38630;BME280;24384;51.988;4.644;2023-05-10T00:56:21;100896.84;;;11.53;100.00
38630;BME280;24384;51.988;4.644;2023-05-10T00:58:48;100897.50;;;11.59;100.00
38630;BME280;24384;51.988;4.644;2023-05-10T01:01:13;100890.41;;;11.60;100.00
38630;BME280;24384;51.988;4.644;2023-05-10T01:03:39;100894.84;;;11.59;100.00
38630;BME280;24384;51.988;4.644;2023-05-10T01:06:06;100901.09;;;11.57;100.00
38630;BME280;24384;51.988;4.644;2023-05-10T01:08:31;100900.66;;;11.69;100.00
38630;BME280;24384;51.988;4.644;2023-05-10T01:10:57;100903.41;;;11.66;100.00
38630;BME280;24384;51.988;4.644;2023-05-10T01:13:32;100903.63;;;11.60;100.00
38630;BME280;24384;51.988;4.644;2023-05-10T01:15:59;100905.63;;;11.53;100.00
38630;BME280;24384;51.988;4.644;2023-05-10T01:18:27;100908.22;;;11.55;100.00
38630;BME280;24384;51.988;4.644;2023-05-10T01:24:24;100918.00;;;11.53;100.00
38630;BME280;24384;51.988;4.644;2023-05-10T01:35:46;100921.94;;;11.64;100.00
38630;BME280;24384;51.988;4.644;2023-05-10T01:38:27;100934.34;;;11.62;100.00
38630;BME280;24384;51.988;4.644;2023-05-10T01:44:10;100931.03;;;11.57;100.00
38630;BME280;24384;51.988;4.644;2023-05-10T01:46:39;100931.81;;;11.59;100.00
38630;BME280;24384;51.988;4.644;2023-05-10T01:49:11;100940.03;;;11.52;100.00
38630;BME280;24384;51.988;4.644;2023-05-10T01:51:44;100933.06;;;11.49;100.00
38630;BME280;24384;51.988;4.644;2023-05-10T01:54:12;100936.38;;;11.56;100.00
38630;BME280;24384;51.988;4.644;2023-05-10T01:56:39;100929.81;;;11.66;100.00
38630;BME280;24384;51.988;4.644;2023-05-10T01:59:09;100928.75;;;11.72;100.00
38630;BME280;24384;51.988;4.644;2023-05-10T02:01:36;100934.03;;;11.72;100.00
38630;BME280;24384;51.988;4.644;2023-05-10T02:04:02;100937.75;;;11.66;100.00
38630;BME280;24384;51.988;4.644;2023-05-10T02:06:28;100946.59;;;11.65;100.00
38630;BME280;24384;51.988;4.644;2023-05-10T02:08:54;100942.47;;;11.81;100.00
38630;BME280;24384;51.988;4.644;2023-05-10T02:11:21;100942.63;;;11.77;100.00
38630;BME280;24384;51.988;4.644;2023-05-10T02:13:48;100944.16;;;11.84;100.00
38630;BME280;24384;51.988;4.644;2023-05-10T02:16:14;100946.22;;;11.76;100.00
38630;BME280;24384;51.988;4.644;2023-05-10T02:18:42;100953.97;;;11.80;100.00
38630;BME280;24384;51.988;4.644;2023-05-10T02:21:08;100948.63;;;11.82;100.00
38630;BME280;24384;51.988;4.644;2023-05-10T02:23:35;100945.63;;;11.93;100.00
38630;BME280;24384;51.988;4.644;2023-05-10T02:26:02;100945.00;;;11.85;100.00
38630;BME280;24384;51.988;4.644;2023-05-10T02:28:29;100950.06;;;11.91;100.00
38630;BME280;24384;51.988;4.644;2023-05-10T02:30:55;100948.69;;;11.80;100.00
38630;BME280;24384;51.988;4.644;2023-05-10T02:33:21;100951.38;;;12.04;100.00
38630;BME280;24384;51.988;4.644;2023-05-10T02:35:47;100944.41;;;12.02;100.00
38630;BME280;24384;51.988;4.644;2023-05-10T02:38:14;100946.25;;;11.99;100.00
38630;BME280;24384;51.988;4.644;2023-05-10T02:40:42;100952.34;;;12.02;100.00
38630;BME280;24384;51.988;4.644;2023-05-10T02:43:12;100954.00;;;12.04;100.00
38630;BME280;24384;51.988;4.644;2023-05-10T02:45:39;100963.56;;;12.08;100.00
38630;BME280;24384;51.988;4.644;2023-05-10T02:48:05;100959.19;;;12.07;100.00
38630;BME280;24384;51.988;4.644;2023-05-10T02:50:32;100959.53;;;11.98;100.00
38630;BME280;24384;51.988;4.644;2023-05-10T02:53:00;100957.06;;;11.92;100.00
38630;BME280;24384;51.988;4.644;2023-05-10T02:55:36;100960.44;;;11.97;100.00
38630;BME280;24384;51.988;4.644;2023-05-10T02:58:03;100959.94;;;11.86;100.00
38630;BME280;24384;51.988;4.644;2023-05-10T03:00:29;100962.38;;;11.92;100.00
38630;BME280;24384;51.988;4.644;2023-05-10T03:02:54;100960.00;;;11.84;100.00
38630;BME280;24384;51.988;4.644;2023-05-10T03:05:21;100964.88;;;11.96;100.00
38630;BME280;24384;51.988;4.644;2023-05-10T03:07:46;100960.97;;;11.81;100.00
38630;BME280;24384;51.988;4.644;2023-05-10T03:10:12;100964.88;;;11.96;100.00
38630;BME280;24384;51.988;4.644;2023-05-10T03:12:56;100965.97;;;11.89;100.00
38630;BME280;24384;51.988;4.644;2023-05-10T03:15:37;100967.03;;;11.85;100.00
38630;BME280;24384;51.988;4.644;2023-05-10T03:18:14;100962.53;;;11.87;100.00
38630;BME280;24384;51.988;4.644;2023-05-10T03:20:47;100953.59;;;11.91;100.00
38630;BME280;24384;51.988;4.644;2023-05-10T03:25:43;100955.34;;;11.91;100.00
38630;BME280;24384;51.988;4.644;2023-05-10T03:28:09;100961.50;;;11.93;100.00
38630;BME280;24384;51.988;4.644;2023-05-10T03:30:35;100956.22;;;11.91;100.00
38630;BME280;24384;51.988;4.644;2023-05-10T03:33:07;100962.59;;;11.86;100.00
38630;BME280;24384;51.988;4.644;2023-05-10T03:35:33;100964.94;;;11.95;100.00
38630;BME280;24384;51.988;4.644;2023-05-10T03:37:58;100967.75;;;11.89;100.00
38630;BME280;24384;51.988;4.644;2023-05-10T03:40:25;100969.84;;;11.80;100.00
38630;BME280;24384;51.988;4.644;2023-05-10T03:42:51;100970.75;;;11.79;100.00
38630;BME280;24384;51.988;4.644;2023-05-10T03:45:16;100972.94;;;11.92;100.00
38630;BME280;24384;51.988;4.644;2023-05-10T03:47:41;100974.06;;;11.85;100.00
38630;BME280;24384;51.988;4.644;2023-05-10T03:50:07;100972.53;;;11.79;100.00
38630;BME280;24384;51.988;4.644;2023-05-10T03:52:32;100965.69;;;11.73;100.00
38630;BME280;24384;51.988;4.644;2023-05-10T03:54:58;100979.56;;;11.78;100.00
38630;BME280;24384;51.988;4.644;2023-05-10T03:57:23;100969.22;;;11.72;100.00
38630;BME280;24384;51.988;4.644;2023-05-10T03:59:48;100973.50;;;11.76;100.00
38630;BME280;24384;51.988;4.644;2023-05-10T04:02:13;100969.78;;;11.82;100.00
38630;BME280;24384;51.988;4.644;2023-05-10T04:04:39;100981.31;;;11.79;100.00
38630;BME280;24384;51.988;4.644;2023-05-10T04:07:04;100977.88;;;11.77;100.00
38630;BME280;24384;51.988;4.644;2023-05-10T04:09:29;100981.53;;;11.73;100.00
38630;BME280;24384;51.988;4.644;2023-05-10T04:11:54;100973.28;;;11.82;100.00
38630;BME280;24384;51.988;4.644;2023-05-10T04:14:20;100978.84;;;11.75;100.00
38630;BME280;24384;51.988;4.644;2023-05-10T04:16:45;100977.09;;;11.74;100.00
38630;BME280;24384;51.988;4.644;2023-05-10T04:19:10;100976.03;;;11.79;100.00
38630;BME280;24384;51.988;4.644;2023-05-10T04:21:36;100978.09;;;11.71;100.00
38630;BME280;24384;51.988;4.644;2023-05-10T04:24:01;100982.88;;;11.85;100.00
38630;BME280;24384;51.988;4.644;2023-05-10T04:26:26;100984.22;;;11.72;100.00
38630;BME280;24384;51.988;4.644;2023-05-10T04:28:52;100991.72;;;11.84;100.00
38630;BME280;24384;51.988;4.644;2023-05-10T04:31:17;100980.28;;;11.83;100.00
38630;BME280;24384;51.988;4.644;2023-05-10T04:33:42;100993.63;;;11.80;100.00
38630;BME280;24384;51.988;4.644;2023-05-10T04:36:08;101002.28;;;11.84;100.00
38630;BME280;24384;51.988;4.644;2023-05-10T04:38:33;100988.97;;;11.87;100.00
38630;BME280;24384;51.988;4.644;2023-05-10T04:41:05;100990.31;;;11.74;100.00
38630;BME280;24384;51.988;4.644;2023-05-10T04:43:31;100997.97;;;11.81;100.00
38630;BME280;24384;51.988;4.644;2023-05-10T04:45:56;100997.16;;;11.79;100.00
38630;BME280;24384;51.988;4.644;2023-05-10T04:48:22;100996.88;;;11.87;100.00
38630;BME280;24384;51.988;4.644;2023-05-10T04:50:47;101002.91;;;11.91;100.00
38630;BME280;24384;51.988;4.644;2023-05-10T04:53:13;101006.78;;;11.82;100.00
38630;BME280;24384;51.988;4.644;2023-05-10T04:55:39;101010.81;;;11.92;100.00
38630;BME280;24384;51.988;4.644;2023-05-10T04:58:04;101015.78;;;12.02;100.00
38630;BME280;24384;51.988;4.644;2023-05-10T05:00:31;101021.94;;;12.02;100.00
38630;BME280;24384;51.988;4.644;2023-05-10T05:02:56;101017.34;;;12.07;100.00
38630;BME280;24384;51.988;4.644;2023-05-10T05:05:21;101022.91;;;11.99;100.00
38630;BME280;24384;51.988;4.644;2023-05-10T05:07:46;101020.94;;;11.79;100.00
38630;BME280;24384;51.988;4.644;2023-05-10T05:10:12;101016.34;;;11.85;100.00
38630;BME280;24384;51.988;4.644;2023-05-10T05:12:37;101018.94;;;11.86;100.00
38630;BME280;24384;51.988;4.644;2023-05-10T05:15:03;101022.56;;;11.83;100.00
38630;BME280;24384;51.988;4.644;2023-05-10T05:17:30;101029.34;;;11.91;100.00
38630;BME280;24384;51.988;4.644;2023-05-10T05:19:55;101032.09;;;11.88;100.00
38630;BME280;24384;51.988;4.644;2023-05-10T05:22:21;101040.13;;;11.85;100.00
38630;BME280;24384;51.988;4.644;2023-05-10T05:24:54;101043.66;;;11.85;100.00
38630;BME280;24384;51.988;4.644;2023-05-10T05:27:20;101047.47;;;11.76;100.00
38630;BME280;24384;51.988;4.644;2023-05-10T05:29:53;101049.44;;;11.71;100.00
38630;BME280;24384;51.988;4.644;2023-05-10T05:32:19;101054.25;;;11.58;100.00
38630;BME280;24384;51.988;4.644;2023-05-10T05:34:45;101059.31;;;11.64;100.00
38630;BME280;24384;51.988;4.644;2023-05-10T05:37:14;101051.34;;;11.66;100.00
38630;BME280;24384;51.988;4.644;2023-05-10T05:39:39;101057.72;;;11.60;100.00
38630;BME280;24384;51.988;4.644;2023-05-10T05:42:05;101062.84;;;11.65;100.00
38630;BME280;24384;51.988;4.644;2023-05-10T05:44:30;101055.50;;;11.73;100.00
38630;BME280;24384;51.988;4.644;2023-05-10T05:46:55;101056.38;;;11.74;100.00
38630;BME280;24384;51.988;4.644;2023-05-10T05:49:21;101059.88;;;11.74;100.00
38630;BME280;24384;51.988;4.644;2023-05-10T05:51:46;101059.56;;;11.83;100.00
38630;BME280;24384;51.988;4.644;2023-05-10T05:54:12;101069.25;;;11.83;100.00
38630;BME280;24384;51.988;4.644;2023-05-10T05:56:37;101073.25;;;11.96;100.00
38630;BME280;24384;51.988;4.644;2023-05-10T05:59:03;101069.41;;;12.05;100.00
38630;BME280;24384;51.988;4.644;2023-05-10T06:01:30;101071.13;;;12.06;100.00
38630;BME280;24384;51.988;4.644;2023-05-10T06:03:55;101068.97;;;12.17;100.00
38630;BME280;24384;51.988;4.644;2023-05-10T06:06:20;101070.00;;;12.13;100.00
38630;BME280;24384;51.988;4.644;2023-05-10T06:08:46;101070.41;;;12.26;100.00
38630;BME280;24384;51.988;4.644;2023-05-10T06:11:11;101072.53;;;12.16;100.00
38630;BME280;24384;51.988;4.644;2023-05-10T06:13:36;101070.28;;;12.29;100.00
38630;BME280;24384;51.988;4.644;2023-05-10T06:16:05;101068.75;;;12.24;100.00
38630;BME280;24384;51.988;4.644;2023-05-10T06:18:33;101076.94;;;12.41;100.00
38630;BME280;24384;51.988;4.644;2023-05-10T06:20:59;101080.47;;;12.40;100.00
38630;BME280;24384;51.988;4.644;2023-05-10T06:23:25;101081.75;;;12.53;100.00
38630;BME280;24384;51.988;4.644;2023-05-10T06:25:51;101081.25;;;12.44;100.00
38630;BME280;24384;51.988;4.644;2023-05-10T06:28:16;101084.53;;;12.50;100.00
38630;BME280;24384;51.988;4.644;2023-05-10T06:30:42;101081.25;;;12.67;100.00
38630;BME280;24384;51.988;4.644;2023-05-10T06:33:07;101085.03;;;12.60;100.00
38630;BME280;24384;51.988;4.644;2023-05-10T06:35:32;101086.16;;;12.54;100.00
38630;BME280;24384;51.988;4.644;2023-05-10T06:37:58;101088.44;;;12.64;100.00
38630;BME280;24384;51.988;4.644;2023-05-10T06:40:23;101089.56;;;12.80;100.00
38630;BME280;24384;51.988;4.644;2023-05-10T06:42:49;101089.97;;;12.93;100.00
38630;BME280;24384;51.988;4.644;2023-05-10T06:45:15;101087.16;;;13.20;100.00
38630;BME280;24384;51.988;4.644;2023-05-10T06:47:41;101086.56;;;13.35;100.00
38630;BME280;24384;51.988;4.644;2023-05-10T06:50:07;101081.69;;;13.47;98.76
38630;BME280;24384;51.988;4.644;2023-05-10T06:52:33;101074.81;;;13.42;98.89
38630;BME280;24384;51.988;4.644;2023-05-10T06:54:58;101085.16;;;13.49;99.28
38630;BME280;24384;51.988;4.644;2023-05-10T06:57:23;101095.50;;;13.55;97.27
38630;BME280;24384;51.988;4.644;2023-05-10T06:59:49;101092.03;;;13.53;97.12
38630;BME280;24384;51.988;4.644;2023-05-10T07:02:16;101096.94;;;13.62;96.36
38630;BME280;24384;51.988;4.644;2023-05-10T07:04:41;101096.72;;;13.46;96.98
38630;BME280;24384;51.988;4.644;2023-05-10T07:07:06;101093.09;;;13.49;97.94
38630;BME280;24384;51.988;4.644;2023-05-10T07:09:32;101100.22;;;13.47;97.96
38630;BME280;24384;51.988;4.644;2023-05-10T07:11:57;101101.78;;;13.52;98.19
38630;BME280;24384;51.988;4.644;2023-05-10T07:14:24;101098.25;;;13.52;96.10
38630;BME280;24384;51.988;4.644;2023-05-10T07:16:49;101105.53;;;13.47;96.60
38630;BME280;24384;51.988;4.644;2023-05-10T07:19:14;101113.06;;;13.35;96.17
38630;BME280;24384;51.988;4.644;2023-05-10T07:21:39;101114.66;;;13.39;96.84
38630;BME280;24384;51.988;4.644;2023-05-10T07:24:07;101114.28;;;13.49;95.79
38630;BME280;24384;51.988;4.644;2023-05-10T07:26:32;101118.03;;;13.43;96.90
38630;BME280;24384;51.988;4.644;2023-05-10T07:28:58;101118.78;;;13.47;97.43
38630;BME280;24384;51.988;4.644;2023-05-10T07:31:23;101114.34;;;13.47;96.67
38630;BME280;24384;51.988;4.644;2023-05-10T07:33:49;101125.94;;;13.45;96.05
38630;BME280;24384;51.988;4.644;2023-05-10T07:36:15;101116.81;;;13.28;97.58
38630;BME280;24384;51.988;4.644;2023-05-10T07:38:40;101127.59;;;13.23;98.05
38630;BME280;24384;51.988;4.644;2023-05-10T07:41:09;101126.56;;;13.28;97.08
38630;BME280;24384;51.988;4.644;2023-05-10T07:43:34;101125.97;;;13.21;97.60
38630;BME280;24384;51.988;4.644;2023-05-10T07:46:00;101125.97;;;13.21;97.92
38630;BME280;24384;51.988;4.644;2023-05-10T07:48:26;101125.31;;;13.14;98.51
38630;BME280;24384;51.988;4.644;2023-05-10T07:50:51;101130.72;;;13.11;99.36
38630;BME280;24384;51.988;4.644;2023-05-10T07:53:16;101133.03;;;13.20;99.14
38630;BME280;24384;51.988;4.644;2023-05-10T07:55:43;101131.75;;;13.31;98.47
38630;BME280;24384;51.988;4.644;2023-05-10T07:58:08;101130.56;;;13.39;97.88
38630;BME280;24384;51.988;4.644;2023-05-10T08:00:34;101120.31;;;13.52;97.96
38630;BME280;24384;51.988;4.644;2023-05-10T08:02:59;101123.75;;;13.54;98.36
38630;BME280;24384;51.988;4.644;2023-05-10T08:05:25;101128.00;;;13.58;98.28
38630;BME280;24384;51.988;4.644;2023-05-10T08:07:50;101136.56;;;13.65;98.39
38630;BME280;24384;51.988;4.644;2023-05-10T08:10:15;101146.81;;;13.52;97.72
38630;BME280;24384;51.988;4.644;2023-05-10T08:12:42;101151.88;;;13.36;96.70
38630;BME280;24384;51.988;4.644;2023-05-10T08:15:10;101147.22;;;13.19;98.22
38630;BME280;24384;51.988;4.644;2023-05-10T08:17:36;101154.34;;;13.17;98.67
38630;BME280;24384;51.988;4.644;2023-05-10T08:20:01;101152.75;;;13.13;98.42
38630;BME280;24384;51.988;4.644;2023-05-10T08:22:26;101155.50;;;13.10;99.07
38630;BME280;24384;51.988;4.644;2023-05-10T08:24:52;101159.06;;;13.09;99.55
38630;BME280;24384;51.988;4.644;2023-05-10T08:27:17;101165.56;;;13.00;99.32
38630;BME280;24384;51.988;4.644;2023-05-10T08:29:42;101164.84;;;12.97;100.00
38630;BME280;24384;51.988;4.644;2023-05-10T08:32:08;101163.34;;;12.89;100.00
38630;BME280;24384;51.988;4.644;2023-05-10T08:34:33;101174.56;;;12.96;100.00
38630;BME280;24384;51.988;4.644;2023-05-10T08:36:58;101177.28;;;12.95;99.76
38630;BME280;24384;51.988;4.644;2023-05-10T08:39:25;101174.63;;;12.95;99.57
38630;BME280;24384;51.988;4.644;2023-05-10T08:41:53;101169.78;;;13.06;99.33
38630;BME280;24384;51.988;4.644;2023-05-10T08:44:21;101180.81;;;13.17;98.86
38630;BME280;24384;51.988;4.644;2023-05-10T08:46:46;101182.59;;;13.17;99.00
38630;BME280;24384;51.988;4.644;2023-05-10T08:49:19;101179.53;;;13.28;98.20
38630;BME280;24384;51.988;4.644;2023-05-10T08:51:50;101186.25;;;13.38;98.18
38630;BME280;24384;51.988;4.644;2023-05-10T08:54:16;101183.00;;;13.53;98.32
38630;BME280;24384;51.988;4.644;2023-05-10T08:56:42;101190.50;;;13.42;98.46
38630;BME280;24384;51.988;4.644;2023-05-10T08:59:08;101184.63;;;13.56;97.77
38630;BME280;24384;51.988;4.644;2023-05-10T09:01:35;101196.53;;;13.68;97.40
38630;BME280;24384;51.988;4.644;2023-05-10T09:04:01;101184.78;;;13.75;97.08
38630;BME280;24384;51.988;4.644;2023-05-10T09:06:26;101191.59;;;13.81;94.96
38630;BME280;24384;51.988;4.644;2023-05-10T09:08:52;101194.00;;;13.87;95.23
38630;BME280;24384;51.988;4.644;2023-05-10T09:11:17;101192.38;;;14.05;95.17
38630;BME280;24384;51.988;4.644;2023-05-10T09:13:43;101191.19;;;14.32;94.03
38630;BME280;24384;51.988;4.644;2023-05-10T09:16:11;101188.25;;;14.59;93.32
38630;BME280;24384;51.988;4.644;2023-05-10T09:18:36;101190.75;;;14.64;92.17
38630;BME280;24384;51.988;4.644;2023-05-10T09:21:02;101192.13;;;15.12;90.35
38630;BME280;24384;51.988;4.644;2023-05-10T09:23:28;101199.66;;;15.21;89.46
38630;BME280;24384;51.988;4.644;2023-05-10T09:26:07;101197.97;;;15.57;88.14
38630;BME280;24384;51.988;4.644;2023-05-10T09:31:17;101203.63;;;15.68;85.52
38630;BME280;24384;51.988;4.644;2023-05-10T09:33:48;101201.94;;;15.85;86.17
38630;BME280;24384;51.988;4.644;2023-05-10T09:36:14;101202.41;;;15.75;85.68
38630;BME280;24384;51.988;4.644;2023-05-10T09:38:51;101211.97;;;15.61;85.94
38630;BME280;24384;51.988;4.644;2023-05-10T09:41:23;101212.28;;;15.54;86.58
38630;BME280;24384;51.988;4.644;2023-05-10T09:43:50;101207.75;;;15.37;87.13
38630;BME280;24384;51.988;4.644;2023-05-10T09:46:20;101215.31;;;15.47;86.56
38630;BME280;24384;51.988;4.644;2023-05-10T09:48:46;101217.22;;;15.24;86.30
38630;BME280;24384;51.988;4.644;2023-05-10T09:51:24;101210.72;;;14.73;89.46
38630;BME280;24384;51.988;4.644;2023-05-10T09:54:12;101212.72;;;14.67;90.22
38630;BME280;24384;51.988;4.644;2023-05-10T09:56:39;101214.50;;;14.46;92.13
38630;BME280;24384;51.988;4.644;2023-05-10T09:59:06;101225.50;;;14.58;92.47
38630;BME280;24384;51.988;4.644;2023-05-10T10:01:31;101225.50;;;14.58;92.89
38630;BME280;24384;51.988;4.644;2023-05-10T10:03:57;101219.59;;;14.72;92.00
38630;BME280;24384;51.988;4.644;2023-05-10T10:06:24;101221.53;;;14.47;93.01
38630;BME280;24384;51.988;4.644;2023-05-10T10:08:50;101220.25;;;14.36;92.98
38630;BME280;24384;51.988;4.644;2023-05-10T10:11:16;101228.59;;;14.26;93.48
38630;BME280;24384;51.988;4.644;2023-05-10T10:13:41;101224.66;;;14.37;93.13
38630;BME280;24384;51.988;4.644;2023-05-10T10:16:08;101227.97;;;14.42;94.37
38630;BME280;24384;51.988;4.644;2023-05-10T10:18:35;101224.91;;;14.30;93.79
38630;BME280;24384;51.988;4.644;2023-05-10T10:21:06;101227.81;;;14.45;93.42
38630;BME280;24384;51.988;4.644;2023-05-10T10:23:33;101232.94;;;14.49;92.59
38630;BME280;24384;51.988;4.644;2023-05-10T10:25:59;101229.84;;;14.60;91.47
38630;BME280;24384;51.988;4.644;2023-05-10T10:31:23;101234.47;;;14.55;91.53
38630;BME280;24384;51.988;4.644;2023-05-10T10:33:59;101233.28;;;14.83;91.86
38630;BME280;24384;51.988;4.644;2023-05-10T10:36:25;101231.09;;;15.12;90.94
38630;BME280;24384;51.988;4.644;2023-05-10T10:50:06;101230.78;;;14.99;88.37
38630;BME280;24384;51.988;4.644;2023-05-10T10:52:35;101233.59;;;14.96;90.16
38630;BME280;24384;51.988;4.644;2023-05-10T10:55:12;101228.25;;;14.77;89.42
38630;BME280;24384;51.988;4.644;2023-05-10T11:00:25;101235.91;;;15.03;87.58
38630;BME280;24384;51.988;4.644;2023-05-10T11:02:53;101247.91;;;15.31;87.49
38630;BME280;24384;51.988;4.644;2023-05-10T11:07:55;101244.16;;;15.16;87.69
38630;BME280;24384;51.988;4.644;2023-05-10T11:10:22;101244.53;;;15.47;87.93
38630;BME280;24384;51.988;4.644;2023-05-10T11:13:15;101247.69;;;15.17;89.05
38630;BME280;24384;51.988;4.644;2023-05-10T11:15:48;101250.22;;;15.20;89.86
38630;BME280;24384;51.988;4.644;2023-05-10T11:18:18;101255.59;;;15.18;89.19
38630;BME280;24384;51.988;4.644;2023-05-10T11:20:50;101252.41;;;15.10;88.71
38630;BME280;24384;51.988;4.644;2023-05-10T11:23:15;101250.00;;;15.25;88.25
38630;BME280;24384;51.988;4.644;2023-05-10T11:25:42;101254.84;;;15.15;86.28
38630;BME280;24384;51.988;4.644;2023-05-10T11:28:12;101261.06;;;15.34;87.59
38630;BME280;24384;51.988;4.644;2023-05-10T11:30:39;101255.66;;;15.17;87.80
38630;BME280;24384;51.988;4.644;2023-05-10T11:33:06;101261.00;;;14.96;86.99
38630;BME280;24384;51.988;4.644;2023-05-10T11:35:42;101266.72;;;14.87;88.22
38630;BME280;24384;51.988;4.644;2023-05-10T11:38:08;101257.66;;;15.12;88.32
38630;BME280;24384;51.988;4.644;2023-05-10T11:40:34;101263.72;;;15.15;87.05
38630;BME280;24384;51.988;4.644;2023-05-10T11:42:59;101265.13;;;15.22;88.54
38630;BME280;24384;51.988;4.644;2023-05-10T11:45:25;101264.13;;;15.06;88.19
38630;BME280;24384;51.988;4.644;2023-05-10T11:47:51;101263.59;;;14.98;88.45
38630;BME280;24384;51.988;4.644;2023-05-10T11:50:17;101268.56;;;15.06;88.08
38630;BME280;24384;51.988;4.644;2023-05-10T11:52:43;101268.06;;;15.16;87.41
38630;BME280;24384;51.988;4.644;2023-05-10T11:55:08;101271.41;;;15.40;86.95
38630;BME280;24384;51.988;4.644;2023-05-10T11:57:35;101275.81;;;15.21;85.89
38630;BME280;24384;51.988;4.644;2023-05-10T12:00:01;101274.25;;;15.55;85.55
38630;BME280;24384;51.988;4.644;2023-05-10T12:02:29;101281.75;;;15.47;85.33
38630;BME280;24384;51.988;4.644;2023-05-10T12:04:55;101273.91;;;15.63;84.93
38630;BME280;24384;51.988;4.644;2023-05-10T12:07:20;101276.50;;;15.64;84.73
38630;BME280;24384;51.988;4.644;2023-05-10T12:10:08;101285.47;;;15.43;83.44
38630;BME280;24384;51.988;4.644;2023-05-10T12:12:39;101278.09;;;15.49;84.18
38630;BME280;24384;51.988;4.644;2023-05-10T12:15:11;101277.28;;;15.47;85.00
38630;BME280;24384;51.988;4.644;2023-05-10T12:17:37;101285.63;;;15.39;85.39
38630;BME280;24384;51.988;4.644;2023-05-10T12:20:13;101288.19;;;15.41;84.71
38630;BME280;24384;51.988;4.644;2023-05-10T12:22:39;101281.88;;;15.44;85.36
38630;BME280;24384;51.988;4.644;2023-05-10T12:25:06;101278.81;;;15.34;85.33
38630;BME280;24384;51.988;4.644;2023-05-10T12:27:32;101287.78;;;15.31;85.63
38630;BME280;24384;51.988;4.644;2023-05-10T12:29:59;101284.41;;;15.07;85.95
38630;BME280;24384;51.988;4.644;2023-05-10T12:32:40;101287.91;;;15.28;85.69
38630;BME280;24384;51.988;4.644;2023-05-10T12:35:06;101288.47;;;15.35;85.36
38630;BME280;24384;51.988;4.644;2023-05-10T12:37:32;101288.28;;;15.39;84.54
38630;BME280;24384;51.988;4.644;2023-05-10T12:40:01;101291.28;;;15.32;84.12
38630;BME280;24384;51.988;4.644;2023-05-10T12:42:27;101290.91;;;15.20;85.95
38630;BME280;24384;51.988;4.644;2023-05-10T12:44:56;101297.47;;;15.32;84.11
38630;BME280;24384;51.988;4.644;2023-05-10T12:47:22;101293.91;;;15.13;84.77
38630;BME280;24384;51.988;4.644;2023-05-10T12:49:47;101296.84;;;15.07;84.37
38630;BME280;24384;51.988;4.644;2023-05-10T12:52:12;101296.88;;;14.86;86.12
38630;BME280;24384;51.988;4.644;2023-05-10T12:54:37;101312.00;;;14.63;86.03
38630;BME280;24384;51.988;4.644;2023-05-10T12:57:03;101309.56;;;14.57;86.86
38630;BME280;24384;51.988;4.644;2023-05-10T12:59:28;101305.91;;;14.61;87.99
38630;BME280;24384;51.988;4.644;2023-05-10T13:01:53;101304.81;;;14.65;87.02
38630;BME280;24384;51.988;4.644;2023-05-10T13:04:19;101311.28;;;14.80;87.23
38630;BME280;24384;51.988;4.644;2023-05-10T13:06:44;101312.00;;;14.84;86.40
38630;BME280;24384;51.988;4.644;2023-05-10T13:09:11;101306.81;;;15.01;87.25
38630;BME280;24384;51.988;4.644;2023-05-10T13:11:36;101302.03;;;15.10;84.79
38630;BME280;24384;51.988;4.644;2023-05-10T13:14:02;101311.47;;;15.17;84.82
38630;BME280;24384;51.988;4.644;2023-05-10T13:16:28;101310.03;;;15.29;86.04
38630;BME280;24384;51.988;4.644;2023-05-10T13:18:53;101303.09;;;15.45;84.22
38630;BME280;24384;51.988;4.644;2023-05-10T13:21:18;101314.22;;;15.34;84.33
38630;BME280;24384;51.988;4.644;2023-05-10T13:23:44;101315.53;;;15.45;82.72